Tropical Cyclones
[Index]
Main Index Home Page Stock Weather Photos Extreme Storms Discussion Storm News and Storm Chasing Reports Tropical Cyclones / Hurricanes / Typhoons Weather Data and Links Wild Fires / Bushfires Weather Observation Techniques Weather Picture Catalogue Tornado Pictures and Reports Stock Video Footage and DVDs for sale
Season 2013-2014 Tropical Cyclone ITA Track Map
Season 2013-2014 Summaries (Operational Data): [AU] [SIO] [SPAC] [SH]
<<- Previous TC | 2013-2014 Season | Next TC ->>

click for intensity scale information  Lat/long Grid: Show Hide

 Date Labels: Show Hide

Operational Tropical Cyclone Data : JTWC Advisories

Name: ITA
Number: 1423

31 Mar 2014 00:00 UTC to 15 Apr 2014 06:00 UTC

    date/time    lat    long     hPa   cat  kts
2014-03-31 00    3.1   161.1    1010         15          
2014-03-31 06    5.0   160.7    1010         15          
2014-03-31 12    5.8   160.1    1010         15          
2014-03-31 18    6.4   159.5    1010         15          
2014-04-01 00    7.0   159.3    1010         15          
2014-04-01 06    7.8   159.3    1010         15          
2014-04-01 12    8.7   159.2    1010         15          
2014-04-01 18    9.6   159.0    1010         15          
2014-04-02 00   10.0   159.0    1010         20          
2014-04-02 06   10.3   159.0    1003         20          
2014-04-02 12   10.6   159.0    1002         20          
2014-04-02 18   10.8   158.8    1004         25          
2014-04-03 00   11.0   158.6    1004         25          
2014-04-03 06   11.1   158.6    1004         25          
2014-04-03 12   11.2   158.3    1004         25          
2014-04-03 12   11.2   158.3    1004         25          
2014-04-04 00   11.2   157.4    1000         30          
2014-04-04 06   11.2   156.9    1000         30          
2014-04-04 12   11.3   156.5    1000         30          
2014-04-04 18   11.4   156.2     996    1    35          
2014-04-05 00   11.6   155.9     993    1    40          
2014-04-05 06   11.8   155.7     989    1    45          
2014-04-05 12   12.0   155.4     989    1    45          
2014-04-05 18   12.1   154.9     989    1    45          
2014-04-06 00   12.1   154.4     989    1    45          
2014-04-06 06   12.1   154.1     989    1    45          
2014-04-06 12   12.2   153.8     994    1    45          
2014-04-06 18   12.3   153.6     989    1    45          
2014-04-07 00   12.3   153.4     989    1    45          
2014-04-07 06   12.1   153.5     985    2    50          
2014-04-07 12   11.9   153.5     982    2    55          
2014-04-07 18   11.7   153.2     978    2    60          
2014-04-08 00   11.6   152.8     974    3    65          
2014-04-08 06   11.5   152.6     974    3    65          
2014-04-08 12   11.4   152.3     974    3    65          
2014-04-08 18   11.4   151.9     970    3    70          
2014-04-09 00   11.5   151.1     967    3    75          
2014-04-09 06   11.5   150.3     963    3    80          
2014-04-09 12   11.4   149.3     956    4    90          
2014-04-09 18   11.7   148.7     956    4    90          
2014-04-10 00   12.1   147.9     948    4   100          
2014-04-10 06   12.5   147.1     937    5   115          
2014-04-10 12   12.9   146.4     922    5   135          
2014-04-10 18   13.3   146.0     922    5   135          
2014-04-11 00   13.7   145.7     922    5   135          
2014-04-11 06   14.5   145.4     929    5   125          
2014-04-11 12   14.9   145.2     956    4    90          
2014-04-11 18   15.5   145.0     967    3    75          
2014-04-12 00   16.2   145.0     974    3    65          
2014-04-12 06   16.7   145.3     985    2    50          
2014-04-12 12   17.1   145.5     989    1    45          
2014-04-12 18   17.8   146.0     989    1    45          
2014-04-13 00   19.0   147.0     989    1    45          
2014-04-13 06   20.1   148.3     989    1    45          
2014-04-13 12   20.9   150.1     985    2    50          
2014-04-13 18   21.6   151.5     989    1    45          
2014-04-14 00   22.6   153.3     993    1    40          
2014-04-14 06   23.7   155.2     993    1    40          
2014-04-14 12   24.6   156.8     993    1    40          
2014-04-14 18   25.3   158.1     993    1    40          
2014-04-15 00   25.7   159.1     996    1    35          
2014-04-15 06   26.3   159.7     996    1    35          
Winds are 10-min average.

Tropical cyclone tracks developed by Michael Bath using operational warnings and advisories and Google Maps.


[Australian Severe Weather index] [Copyright Notice] [Email Contacts] [Search This Site] [Privacy Policy]
Document: tropical_cyclone_ita.htm Updated: 2 May 2017